sensor_id;sensor_type;location;lat;lon;timestamp;P1;durP1;ratioP1;P2;durP2;ratioP2
37288;SDS011;23174;49.462;11.000;2024-02-14T00:00:27;10.82;;;8.18;;
37288;SDS011;23174;49.462;11.000;2024-02-14T00:02:28;12.20;;;7.85;;
37288;SDS011;23174;49.462;11.000;2024-02-14T00:04:28;10.32;;;8.27;;
37288;SDS011;23174;49.462;11.000;2024-02-14T00:06:29;8.65;;;7.45;;
37288;SDS011;23174;49.462;11.000;2024-02-14T00:08:34;7.40;;;6.40;;
37288;SDS011;23174;49.462;11.000;2024-02-14T00:10:34;11.45;;;6.88;;
37288;SDS011;23174;49.462;11.000;2024-02-14T00:12:35;7.82;;;6.80;;
37288;SDS011;23174;49.462;11.000;2024-02-14T00:14:36;7.05;;;6.32;;
37288;SDS011;23174;49.462;11.000;2024-02-14T00:16:37;8.02;;;6.53;;
37288;SDS011;23174;49.462;11.000;2024-02-14T00:18:39;10.75;;;6.85;;
37288;SDS011;23174;49.462;11.000;2024-02-14T00:20:39;8.48;;;6.55;;
37288;SDS011;23174;49.462;11.000;2024-02-14T00:22:40;7.28;;;6.55;;
37288;SDS011;23174;49.462;11.000;2024-02-14T00:24:40;8.95;;;6.35;;
37288;SDS011;23174;49.462;11.000;2024-02-14T00:26:41;9.50;;;6.20;;
37288;SDS011;23174;49.462;11.000;2024-02-14T00:28:41;6.00;;;5.40;;
37288;SDS011;23174;49.462;11.000;2024-02-14T00:30:42;10.98;;;6.07;;
37288;SDS011;23174;49.462;11.000;2024-02-14T00:32:42;6.35;;;5.13;;
37288;SDS011;23174;49.462;11.000;2024-02-14T00:34:43;7.85;;;5.60;;
37288;SDS011;23174;49.462;11.000;2024-02-14T00:36:44;5.55;;;5.10;;
37288;SDS011;23174;49.462;11.000;2024-02-14T00:38:46;5.40;;;4.32;;
37288;SDS011;23174;49.462;11.000;2024-02-14T00:40:47;5.88;;;5.20;;
37288;SDS011;23174;49.462;11.000;2024-02-14T00:42:47;7.13;;;5.07;;
37288;SDS011;23174;49.462;11.000;2024-02-14T00:44:48;6.72;;;4.88;;
37288;SDS011;23174;49.462;11.000;2024-02-14T00:46:48;7.10;;;4.65;;
37288;SDS011;23174;49.462;11.000;2024-02-14T00:48:49;7.32;;;5.15;;
37288;SDS011;23174;49.462;11.000;2024-02-14T00:50:50;6.13;;;5.00;;
37288;SDS011;23174;49.462;11.000;2024-02-14T00:52:52;6.47;;;4.47;;
37288;SDS011;23174;49.462;11.000;2024-02-14T00:54:52;4.95;;;4.55;;
37288;SDS011;23174;49.462;11.000;2024-02-14T00:56:53;6.40;;;4.78;;
37288;SDS011;23174;49.462;11.000;2024-02-14T00:58:53;5.20;;;4.60;;
37288;SDS011;23174;49.462;11.000;2024-02-14T01:00:54;6.25;;;4.63;;
37288;SDS011;23174;49.462;11.000;2024-02-14T01:02:54;5.32;;;4.55;;
37288;SDS011;23174;49.462;11.000;2024-02-14T01:04:56;6.65;;;4.50;;
37288;SDS011;23174;49.462;11.000;2024-02-14T01:06:56;4.43;;;3.90;;
37288;SDS011;23174;49.462;11.000;2024-02-14T01:08:58;4.90;;;4.10;;
37288;SDS011;23174;49.462;11.000;2024-02-14T01:10:58;5.13;;;4.28;;
37288;SDS011;23174;49.462;11.000;2024-02-14T01:12:59;6.75;;;4.00;;
37288;SDS011;23174;49.462;11.000;2024-02-14T01:14:59;7.15;;;4.15;;
37288;SDS011;23174;49.462;11.000;2024-02-14T01:16:59;6.70;;;4.25;;
37288;SDS011;23174;49.462;11.000;2024-02-14T01:19:00;5.30;;;3.92;;
37288;SDS011;23174;49.462;11.000;2024-02-14T01:21:00;5.40;;;4.45;;
37288;SDS011;23174;49.462;11.000;2024-02-14T01:23:01;6.97;;;4.82;;
37288;SDS011;23174;49.462;11.000;2024-02-14T01:25:02;4.63;;;4.22;;
37288;SDS011;23174;49.462;11.000;2024-02-14T01:27:04;4.57;;;4.13;;
37288;SDS011;23174;49.462;11.000;2024-02-14T01:29:05;4.85;;;4.38;;
37288;SDS011;23174;49.462;11.000;2024-02-14T01:31:05;5.20;;;4.18;;
37288;SDS011;23174;49.462;11.000;2024-02-14T01:33:11;6.85;;;4.25;;
37288;SDS011;23174;49.462;11.000;2024-02-14T01:35:11;4.43;;;4.03;;
37288;SDS011;23174;49.462;11.000;2024-02-14T01:37:12;6.10;;;4.15;;
37288;SDS011;23174;49.462;11.000;2024-02-14T01:39:13;4.43;;;4.03;;
37288;SDS011;23174;49.462;11.000;2024-02-14T01:41:13;6.00;;;4.70;;
37288;SDS011;23174;49.462;11.000;2024-02-14T01:43:14;5.57;;;4.38;;
37288;SDS011;23174;49.462;11.000;2024-02-14T01:45:15;4.30;;;3.90;;
37288;SDS011;23174;49.462;11.000;2024-02-14T01:47:15;6.32;;;4.25;;
37288;SDS011;23174;49.462;11.000;2024-02-14T01:49:16;5.68;;;4.07;;
37288;SDS011;23174;49.462;11.000;2024-02-14T01:51:17;6.10;;;4.15;;
37288;SDS011;23174;49.462;11.000;2024-02-14T01:53:22;6.82;;;4.55;;
37288;SDS011;23174;49.462;11.000;2024-02-14T01:55:23;5.90;;;4.10;;
37288;SDS011;23174;49.462;11.000;2024-02-14T01:57:26;4.43;;;4.00;;
37288;SDS011;23174;49.462;11.000;2024-02-14T01:59:27;4.53;;;4.03;;
37288;SDS011;23174;49.462;11.000;2024-02-14T02:01:27;4.40;;;3.95;;
37288;SDS011;23174;49.462;11.000;2024-02-14T02:03:28;4.68;;;3.85;;
37288;SDS011;23174;49.462;11.000;2024-02-14T02:05:29;6.25;;;4.55;;
37288;SDS011;23174;49.462;11.000;2024-02-14T02:07:30;7.05;;;3.83;;
37288;SDS011;23174;49.462;11.000;2024-02-14T02:09:32;4.03;;;3.63;;
37288;SDS011;23174;49.462;11.000;2024-02-14T02:11:42;5.07;;;3.78;;
37288;SDS011;23174;49.462;11.000;2024-02-14T02:13:45;4.35;;;3.80;;
37288;SDS011;23174;49.462;11.000;2024-02-14T02:15:46;5.53;;;3.92;;
37288;SDS011;23174;49.462;11.000;2024-02-14T02:17:46;4.00;;;3.58;;
37288;SDS011;23174;49.462;11.000;2024-02-14T02:19:55;6.03;;;3.92;;
37288;SDS011;23174;49.462;11.000;2024-02-14T02:21:57;4.38;;;3.58;;
37288;SDS011;23174;49.462;11.000;2024-02-14T02:23:59;4.63;;;3.55;;
37288;SDS011;23174;49.462;11.000;2024-02-14T02:26:00;3.72;;;3.40;;
37288;SDS011;23174;49.462;11.000;2024-02-14T02:28:00;3.63;;;2.92;;
37288;SDS011;23174;49.462;11.000;2024-02-14T02:30:01;5.22;;;3.78;;
37288;SDS011;23174;49.462;11.000;2024-02-14T02:32:01;5.20;;;3.53;;
37288;SDS011;23174;49.462;11.000;2024-02-14T02:34:02;5.55;;;3.35;;
37288;SDS011;23174;49.462;11.000;2024-02-14T02:36:03;3.90;;;3.47;;
37288;SDS011;23174;49.462;11.000;2024-02-14T02:38:03;8.50;;;3.65;;
37288;SDS011;23174;49.462;11.000;2024-02-14T02:40:04;4.00;;;3.60;;
37288;SDS011;23174;49.462;11.000;2024-02-14T02:42:05;4.65;;;3.65;;
37288;SDS011;23174;49.462;11.000;2024-02-14T02:44:05;5.00;;;3.50;;
37288;SDS011;23174;49.462;11.000;2024-02-14T02:46:08;5.22;;;4.10;;
37288;SDS011;23174;49.462;11.000;2024-02-14T02:48:09;4.00;;;3.70;;
37288;SDS011;23174;49.462;11.000;2024-02-14T02:50:09;4.78;;;3.67;;
37288;SDS011;23174;49.462;11.000;2024-02-14T02:52:10;4.15;;;3.42;;
37288;SDS011;23174;49.462;11.000;2024-02-14T02:54:11;3.72;;;3.40;;
37288;SDS011;23174;49.462;11.000;2024-02-14T02:56:11;5.40;;;3.30;;
37288;SDS011;23174;49.462;11.000;2024-02-14T02:58:12;3.65;;;3.35;;
37288;SDS011;23174;49.462;11.000;2024-02-14T03:00:13;3.55;;;3.25;;
37288;SDS011;23174;49.462;11.000;2024-02-14T03:02:15;5.18;;;3.30;;
37288;SDS011;23174;49.462;11.000;2024-02-14T03:04:16;5.70;;;3.65;;
37288;SDS011;23174;49.462;11.000;2024-02-14T03:06:16;4.10;;;2.97;;
37288;SDS011;23174;49.462;11.000;2024-02-14T03:08:17;4.68;;;3.63;;
37288;SDS011;23174;49.462;11.000;2024-02-14T03:10:18;3.58;;;3.28;;
37288;SDS011;23174;49.462;11.000;2024-02-14T03:12:19;4.70;;;3.30;;
37288;SDS011;23174;49.462;11.000;2024-02-14T03:14:21;4.35;;;2.90;;
37288;SDS011;23174;49.462;11.000;2024-02-14T03:16:22;8.18;;;3.47;;
37288;SDS011;23174;49.462;11.000;2024-02-14T03:18:24;3.70;;;3.10;;
37288;SDS011;23174;49.462;11.000;2024-02-14T03:20:25;3.80;;;3.28;;
37288;SDS011;23174;49.462;11.000;2024-02-14T03:22:26;4.97;;;3.47;;
37288;SDS011;23174;49.462;11.000;2024-02-14T03:24:26;4.18;;;3.15;;
37288;SDS011;23174;49.462;11.000;2024-02-14T03:26:26;5.05;;;3.25;;
37288;SDS011;23174;49.462;11.000;2024-02-14T03:28:27;4.80;;;3.13;;
37288;SDS011;23174;49.462;11.000;2024-02-14T03:30:27;4.20;;;3.28;;
37288;SDS011;23174;49.462;11.000;2024-02-14T03:32:30;4.75;;;3.10;;
37288;SDS011;23174;49.462;11.000;2024-02-14T03:34:30;6.50;;;3.10;;
37288;SDS011;23174;49.462;11.000;2024-02-14T03:36:36;6.22;;;3.05;;
37288;SDS011;23174;49.462;11.000;2024-02-14T03:38:37;4.15;;;3.13;;
37288;SDS011;23174;49.462;11.000;2024-02-14T03:40:39;3.58;;;3.20;;
37288;SDS011;23174;49.462;11.000;2024-02-14T03:42:42;3.33;;;3.03;;
37288;SDS011;23174;49.462;11.000;2024-02-14T03:44:43;4.07;;;3.53;;
37288;SDS011;23174;49.462;11.000;2024-02-14T03:46:43;4.20;;;3.10;;
37288;SDS011;23174;49.462;11.000;2024-02-14T03:48:44;4.60;;;2.95;;
37288;SDS011;23174;49.462;11.000;2024-02-14T03:50:44;3.10;;;2.80;;
37288;SDS011;23174;49.462;11.000;2024-02-14T03:52:45;3.20;;;2.80;;
37288;SDS011;23174;49.462;11.000;2024-02-14T03:54:45;3.25;;;2.90;;
37288;SDS011;23174;49.462;11.000;2024-02-14T03:56:46;3.70;;;3.22;;
37288;SDS011;23174;49.462;11.000;2024-02-14T03:58:46;5.88;;;3.13;;
37288;SDS011;23174;49.462;11.000;2024-02-14T04:00:50;5.45;;;2.97;;
37288;SDS011;23174;49.462;11.000;2024-02-14T04:02:52;4.55;;;3.22;;
37288;SDS011;23174;49.462;11.000;2024-02-14T04:04:53;4.95;;;2.72;;
37288;SDS011;23174;49.462;11.000;2024-02-14T04:06:54;2.75;;;2.40;;
37288;SDS011;23174;49.462;11.000;2024-02-14T04:08:54;4.10;;;2.80;;
37288;SDS011;23174;49.462;11.000;2024-02-14T04:10:55;3.38;;;3.05;;
37288;SDS011;23174;49.462;11.000;2024-02-14T04:12:56;5.18;;;2.90;;
37288;SDS011;23174;49.462;11.000;2024-02-14T04:14:56;3.63;;;2.72;;
37288;SDS011;23174;49.462;11.000;2024-02-14T04:16:57;4.38;;;3.25;;
37288;SDS011;23174;49.462;11.000;2024-02-14T04:18:57;2.85;;;2.55;;
37288;SDS011;23174;49.462;11.000;2024-02-14T04:23:03;4.10;;;2.97;;
37288;SDS011;23174;49.462;11.000;2024-02-14T04:25:07;4.07;;;2.85;;
37288;SDS011;23174;49.462;11.000;2024-02-14T04:27:08;4.30;;;2.63;;
37288;SDS011;23174;49.462;11.000;2024-02-14T04:29:08;4.03;;;3.13;;
37288;SDS011;23174;49.462;11.000;2024-02-14T04:31:09;4.35;;;2.80;;
37288;SDS011;23174;49.462;11.000;2024-02-14T04:33:09;3.72;;;3.10;;
37288;SDS011;23174;49.462;11.000;2024-02-14T04:35:11;3.92;;;3.47;;
37288;SDS011;23174;49.462;11.000;2024-02-14T04:37:13;2.78;;;2.58;;
37288;SDS011;23174;49.462;11.000;2024-02-14T04:39:15;2.70;;;2.42;;
37288;SDS011;23174;49.462;11.000;2024-02-14T04:41:15;5.45;;;3.50;;
37288;SDS011;23174;49.462;11.000;2024-02-14T04:43:16;5.93;;;2.80;;
37288;SDS011;23174;49.462;11.000;2024-02-14T04:45:17;3.83;;;3.35;;
37288;SDS011;23174;49.462;11.000;2024-02-14T04:47:17;3.30;;;3.00;;
37288;SDS011;23174;49.462;11.000;2024-02-14T04:49:18;3.60;;;3.15;;
37288;SDS011;23174;49.462;11.000;2024-02-14T04:51:19;3.47;;;2.97;;
37288;SDS011;23174;49.462;11.000;2024-02-14T04:53:19;3.25;;;2.95;;
37288;SDS011;23174;49.462;11.000;2024-02-14T04:55:20;4.03;;;3.03;;
37288;SDS011;23174;49.462;11.000;2024-02-14T04:57:20;3.50;;;3.20;;
37288;SDS011;23174;49.462;11.000;2024-02-14T04:59:21;5.32;;;2.75;;
37288;SDS011;23174;49.462;11.000;2024-02-14T05:01:21;4.53;;;2.60;;
37288;SDS011;23174;49.462;11.000;2024-02-14T05:03:22;4.28;;;3.10;;
37288;SDS011;23174;49.462;11.000;2024-02-14T05:05:24;3.97;;;3.15;;
37288;SDS011;23174;49.462;11.000;2024-02-14T05:07:24;4.43;;;3.03;;
37288;SDS011;23174;49.462;11.000;2024-02-14T05:09:25;6.70;;;3.33;;
37288;SDS011;23174;49.462;11.000;2024-02-14T05:11:25;3.10;;;2.80;;
37288;SDS011;23174;49.462;11.000;2024-02-14T05:13:26;5.10;;;2.60;;
37288;SDS011;23174;49.462;11.000;2024-02-14T05:15:26;3.67;;;3.25;;
37288;SDS011;23174;49.462;11.000;2024-02-14T05:17:27;4.90;;;3.22;;
37288;SDS011;23174;49.462;11.000;2024-02-14T05:19:27;3.70;;;3.17;;
37288;SDS011;23174;49.462;11.000;2024-02-14T05:21:29;3.63;;;2.67;;
37288;SDS011;23174;49.462;11.000;2024-02-14T05:23:29;5.22;;;3.28;;
37288;SDS011;23174;49.462;11.000;2024-02-14T05:25:30;6.07;;;3.33;;
37288;SDS011;23174;49.462;11.000;2024-02-14T05:27:32;5.72;;;2.97;;
37288;SDS011;23174;49.462;11.000;2024-02-14T05:29:33;6.63;;;2.78;;
37288;SDS011;23174;49.462;11.000;2024-02-14T05:31:45;5.47;;;3.13;;
37288;SDS011;23174;49.462;11.000;2024-02-14T05:33:48;3.75;;;3.13;;
37288;SDS011;23174;49.462;11.000;2024-02-14T05:35:49;3.30;;;2.95;;
37288;SDS011;23174;49.462;11.000;2024-02-14T05:37:49;9.52;;;2.88;;
37288;SDS011;23174;49.462;11.000;2024-02-14T05:39:51;5.50;;;3.70;;
37288;SDS011;23174;49.462;11.000;2024-02-14T05:41:51;5.18;;;3.00;;
37288;SDS011;23174;49.462;11.000;2024-02-14T05:43:54;4.93;;;3.50;;
37288;SDS011;23174;49.462;11.000;2024-02-14T05:45:54;5.40;;;3.00;;
37288;SDS011;23174;49.462;11.000;2024-02-14T05:47:55;3.13;;;2.83;;
37288;SDS011;23174;49.462;11.000;2024-02-14T05:49:56;4.82;;;3.33;;
37288;SDS011;23174;49.462;11.000;2024-02-14T05:51:56;4.13;;;3.33;;
37288;SDS011;23174;49.462;11.000;2024-02-14T05:53:57;6.45;;;3.17;;
37288;SDS011;23174;49.462;11.000;2024-02-14T05:55:57;4.15;;;3.70;;
37288;SDS011;23174;49.462;11.000;2024-02-14T05:57:58;6.07;;;3.22;;
37288;SDS011;23174;49.462;11.000;2024-02-14T05:59:59;7.57;;;3.00;;
37288;SDS011;23174;49.462;11.000;2024-02-14T06:01:59;3.85;;;3.05;;
37288;SDS011;23174;49.462;11.000;2024-02-14T06:04:03;9.98;;;3.30;;
37288;SDS011;23174;49.462;11.000;2024-02-14T06:06:03;7.65;;;3.28;;
37288;SDS011;23174;49.462;11.000;2024-02-14T06:08:04;5.60;;;3.42;;
37288;SDS011;23174;49.462;11.000;2024-02-14T06:10:04;6.85;;;3.60;;
37288;SDS011;23174;49.462;11.000;2024-02-14T06:12:06;4.32;;;3.75;;
37288;SDS011;23174;49.462;11.000;2024-02-14T06:14:07;4.65;;;3.42;;
37288;SDS011;23174;49.462;11.000;2024-02-14T06:16:12;4.85;;;3.50;;
37288;SDS011;23174;49.462;11.000;2024-02-14T06:18:13;5.47;;;3.15;;
37288;SDS011;23174;49.462;11.000;2024-02-14T06:20:13;3.67;;;3.05;;
37288;SDS011;23174;49.462;11.000;2024-02-14T06:22:14;3.53;;;2.95;;
37288;SDS011;23174;49.462;11.000;2024-02-14T06:24:14;2.83;;;1.75;;
37288;SDS011;23174;49.462;11.000;2024-02-14T06:26:15;3.95;;;3.13;;
37288;SDS011;23174;49.462;11.000;2024-02-14T06:28:15;3.78;;;3.17;;
37288;SDS011;23174;49.462;11.000;2024-02-14T06:30:16;3.22;;;2.72;;
37288;SDS011;23174;49.462;11.000;2024-02-14T06:32:17;5.95;;;2.97;;
37288;SDS011;23174;49.462;11.000;2024-02-14T06:34:17;6.15;;;3.33;;
37288;SDS011;23174;49.462;11.000;2024-02-14T06:36:19;5.93;;;3.47;;
37288;SDS011;23174;49.462;11.000;2024-02-14T06:38:20;5.32;;;3.40;;
37288;SDS011;23174;49.462;11.000;2024-02-14T06:40:21;7.97;;;3.45;;
37288;SDS011;23174;49.462;11.000;2024-02-14T06:42:22;7.32;;;3.95;;
37288;SDS011;23174;49.462;11.000;2024-02-14T06:44:23;7.25;;;3.17;;
37288;SDS011;23174;49.462;11.000;2024-02-14T06:46:24;10.05;;;3.80;;
37288;SDS011;23174;49.462;11.000;2024-02-14T06:48:24;4.97;;;3.55;;
37288;SDS011;23174;49.462;11.000;2024-02-14T06:50:25;6.63;;;3.60;;
37288;SDS011;23174;49.462;11.000;2024-02-14T06:52:26;5.63;;;4.03;;
37288;SDS011;23174;49.462;11.000;2024-02-14T06:54:26;8.32;;;4.80;;
37288;SDS011;23174;49.462;11.000;2024-02-14T06:56:29;5.20;;;4.03;;
37288;SDS011;23174;49.462;11.000;2024-02-14T06:58:30;5.20;;;4.10;;
37288;SDS011;23174;49.462;11.000;2024-02-14T07:00:31;6.25;;;4.57;;
37288;SDS011;23174;49.462;11.000;2024-02-14T07:02:31;7.13;;;4.72;;
37288;SDS011;23174;49.462;11.000;2024-02-14T07:04:31;9.48;;;5.32;;
37288;SDS011;23174;49.462;11.000;2024-02-14T07:06:32;6.82;;;4.53;;
37288;SDS011;23174;49.462;11.000;2024-02-14T07:08:32;4.20;;;3.45;;
37288;SDS011;23174;49.462;11.000;2024-02-14T07:10:33;6.03;;;3.80;;
37288;SDS011;23174;49.462;11.000;2024-02-14T07:12:33;3.88;;;3.22;;
37288;SDS011;23174;49.462;11.000;2024-02-14T07:14:36;6.15;;;3.67;;
37288;SDS011;23174;49.462;11.000;2024-02-14T07:16:36;5.50;;;3.30;;
37288;SDS011;23174;49.462;11.000;2024-02-14T07:18:37;7.32;;;3.85;;
37288;SDS011;23174;49.462;11.000;2024-02-14T07:20:37;6.35;;;3.50;;
37288;SDS011;23174;49.462;11.000;2024-02-14T07:22:38;7.63;;;3.45;;
37288;SDS011;23174;49.462;11.000;2024-02-14T07:24:39;7.50;;;3.60;;
37288;SDS011;23174;49.462;11.000;2024-02-14T07:26:39;7.45;;;3.53;;
37288;SDS011;23174;49.462;11.000;2024-02-14T07:28:41;8.77;;;3.50;;
37288;SDS011;23174;49.462;11.000;2024-02-14T07:30:42;4.85;;;3.30;;
37288;SDS011;23174;49.462;11.000;2024-02-14T07:32:45;6.30;;;3.67;;
37288;SDS011;23174;49.462;11.000;2024-02-14T07:34:46;15.90;;;3.40;;
37288;SDS011;23174;49.462;11.000;2024-02-14T07:36:46;6.43;;;3.70;;
37288;SDS011;23174;49.462;11.000;2024-02-14T07:38:47;4.22;;;3.35;;
37288;SDS011;23174;49.462;11.000;2024-02-14T07:40:47;4.90;;;3.58;;
37288;SDS011;23174;49.462;11.000;2024-02-14T07:42:48;6.88;;;3.58;;
37288;SDS011;23174;49.462;11.000;2024-02-14T07:44:48;6.20;;;3.65;;
37288;SDS011;23174;49.462;11.000;2024-02-14T07:46:49;6.43;;;3.70;;
37288;SDS011;23174;49.462;11.000;2024-02-14T07:48:50;6.30;;;4.35;;
37288;SDS011;23174;49.462;11.000;2024-02-14T07:50:50;5.65;;;4.38;;
37288;SDS011;23174;49.462;11.000;2024-02-14T07:52:51;5.32;;;3.70;;
37288;SDS011;23174;49.462;11.000;2024-02-14T07:54:52;6.15;;;3.90;;
37288;SDS011;23174;49.462;11.000;2024-02-14T07:56:54;5.63;;;3.83;;
37288;SDS011;23174;49.462;11.000;2024-02-14T07:58:54;5.85;;;3.65;;
37288;SDS011;23174;49.462;11.000;2024-02-14T08:00:54;6.43;;;3.95;;
37288;SDS011;23174;49.462;11.000;2024-02-14T08:02:55;7.47;;;4.20;;
37288;SDS011;23174;49.462;11.000;2024-02-14T08:04:56;11.00;;;5.45;;
37288;SDS011;23174;49.462;11.000;2024-02-14T08:06:56;9.10;;;5.15;;
37288;SDS011;23174;49.462;11.000;2024-02-14T08:08:56;8.18;;;4.50;;
37288;SDS011;23174;49.462;11.000;2024-02-14T08:11:01;4.63;;;3.75;;
37288;SDS011;23174;49.462;11.000;2024-02-14T08:13:02;5.35;;;3.90;;
37288;SDS011;23174;49.462;11.000;2024-02-14T08:15:04;4.88;;;3.78;;
37288;SDS011;23174;49.462;11.000;2024-02-14T08:17:06;5.57;;;3.80;;
37288;SDS011;23174;49.462;11.000;2024-02-14T08:19:07;8.23;;;3.90;;
37288;SDS011;23174;49.462;11.000;2024-02-14T08:21:07;4.60;;;4.00;;
37288;SDS011;23174;49.462;11.000;2024-02-14T08:23:08;7.15;;;4.22;;
37288;SDS011;23174;49.462;11.000;2024-02-14T08:25:08;8.23;;;4.18;;
37288;SDS011;23174;49.462;11.000;2024-02-14T08:27:09;4.35;;;3.53;;
37288;SDS011;23174;49.462;11.000;2024-02-14T08:29:10;4.47;;;4.03;;
37288;SDS011;23174;49.462;11.000;2024-02-14T08:31:11;7.03;;;4.50;;
37288;SDS011;23174;49.462;11.000;2024-02-14T08:33:12;4.68;;;3.47;;
37288;SDS011;23174;49.462;11.000;2024-02-14T08:35:13;6.22;;;3.92;;
37288;SDS011;23174;49.462;11.000;2024-02-14T08:37:13;6.45;;;3.67;;
37288;SDS011;23174;49.462;11.000;2024-02-14T08:39:14;4.97;;;3.50;;
37288;SDS011;23174;49.462;11.000;2024-02-14T08:41:14;6.25;;;3.80;;
37288;SDS011;23174;49.462;11.000;2024-02-14T08:43:15;4.55;;;3.72;;
37288;SDS011;23174;49.462;11.000;2024-02-14T08:45:15;5.53;;;4.05;;
37288;SDS011;23174;49.462;11.000;2024-02-14T08:47:16;6.03;;;3.60;;
37288;SDS011;23174;49.462;11.000;2024-02-14T08:49:17;6.18;;;3.95;;
37288;SDS011;23174;49.462;11.000;2024-02-14T08:51:17;6.28;;;3.38;;
37288;SDS011;23174;49.462;11.000;2024-02-14T08:53:22;4.72;;;3.95;;
37288;SDS011;23174;49.462;11.000;2024-02-14T08:55:22;6.78;;;3.78;;
37288;SDS011;23174;49.462;11.000;2024-02-14T08:57:23;11.95;;;4.03;;
37288;SDS011;23174;49.462;11.000;2024-02-14T08:59:24;4.55;;;3.47;;
37288;SDS011;23174;49.462;11.000;2024-02-14T09:01:24;6.50;;;3.60;;
37288;SDS011;23174;49.462;11.000;2024-02-14T09:03:26;5.85;;;3.58;;
37288;SDS011;23174;49.462;11.000;2024-02-14T09:05:26;9.50;;;4.53;;
37288;SDS011;23174;49.462;11.000;2024-02-14T09:07:28;7.22;;;3.88;;
37288;SDS011;23174;49.462;11.000;2024-02-14T09:09:28;6.68;;;3.75;;
37288;SDS011;23174;49.462;11.000;2024-02-14T09:11:29;5.45;;;3.42;;
37288;SDS011;23174;49.462;11.000;2024-02-14T09:13:31;5.38;;;4.03;;
37288;SDS011;23174;49.462;11.000;2024-02-14T09:15:32;5.78;;;3.90;;
37288;SDS011;23174;49.462;11.000;2024-02-14T09:17:33;6.45;;;3.47;;
37288;SDS011;23174;49.462;11.000;2024-02-14T09:19:33;4.22;;;3.38;;
37288;SDS011;23174;49.462;11.000;2024-02-14T09:21:34;4.40;;;3.17;;
37288;SDS011;23174;49.462;11.000;2024-02-14T09:23:36;4.20;;;3.22;;
37288;SDS011;23174;49.462;11.000;2024-02-14T09:25:39;6.63;;;3.78;;
37288;SDS011;23174;49.462;11.000;2024-02-14T09:27:40;8.55;;;3.83;;
37288;SDS011;23174;49.462;11.000;2024-02-14T09:29:41;5.18;;;3.70;;
37288;SDS011;23174;49.462;11.000;2024-02-14T09:31:42;6.18;;;3.45;;
37288;SDS011;23174;49.462;11.000;2024-02-14T09:33:47;6.38;;;3.50;;
37288;SDS011;23174;49.462;11.000;2024-02-14T09:35:48;6.10;;;3.30;;
37288;SDS011;23174;49.462;11.000;2024-02-14T09:37:50;5.20;;;3.45;;
37288;SDS011;23174;49.462;11.000;2024-02-14T09:39:51;5.90;;;3.70;;
37288;SDS011;23174;49.462;11.000;2024-02-14T09:41:51;6.10;;;3.75;;
37288;SDS011;23174;49.462;11.000;2024-02-14T09:43:54;4.93;;;3.42;;
37288;SDS011;23174;49.462;11.000;2024-02-14T09:45:54;4.47;;;3.40;;
37288;SDS011;23174;49.462;11.000;2024-02-14T09:47:55;3.83;;;3.28;;
37288;SDS011;23174;49.462;11.000;2024-02-14T09:49:57;5.15;;;3.30;;
37288;SDS011;23174;49.462;11.000;2024-02-14T09:51:58;6.60;;;3.63;;
37288;SDS011;23174;49.462;11.000;2024-02-14T09:54:01;5.40;;;3.38;;
37288;SDS011;23174;49.462;11.000;2024-02-14T09:56:02;4.40;;;3.20;;
37288;SDS011;23174;49.462;11.000;2024-02-14T09:58:03;5.85;;;3.13;;
37288;SDS011;23174;49.462;11.000;2024-02-14T10:00:06;3.13;;;2.83;;
37288;SDS011;23174;49.462;11.000;2024-02-14T10:02:09;6.45;;;4.07;;
37288;SDS011;23174;49.462;11.000;2024-02-14T10:04:10;4.55;;;3.38;;
37288;SDS011;23174;49.462;11.000;2024-02-14T10:06:10;14.15;;;5.22;;
37288;SDS011;23174;49.462;11.000;2024-02-14T10:08:11;5.30;;;4.13;;
37288;SDS011;23174;49.462;11.000;2024-02-14T10:10:12;7.15;;;3.70;;
37288;SDS011;23174;49.462;11.000;2024-02-14T10:12:13;5.43;;;3.78;;
37288;SDS011;23174;49.462;11.000;2024-02-14T10:14:14;5.53;;;3.60;;
37288;SDS011;23174;49.462;11.000;2024-02-14T10:16:15;3.58;;;3.17;;
37288;SDS011;23174;49.462;11.000;2024-02-14T10:18:16;4.53;;;3.22;;
37288;SDS011;23174;49.462;11.000;2024-02-14T10:20:17;5.78;;;3.20;;
37288;SDS011;23174;49.462;11.000;2024-02-14T10:22:18;4.95;;;3.53;;
37288;SDS011;23174;49.462;11.000;2024-02-14T10:24:18;5.53;;;4.13;;
37288;SDS011;23174;49.462;11.000;2024-02-14T10:26:19;4.53;;;3.60;;
37288;SDS011;23174;49.462;11.000;2024-02-14T10:28:20;6.25;;;3.95;;
37288;SDS011;23174;49.462;11.000;2024-02-14T10:30:21;7.07;;;4.30;;
37288;SDS011;23174;49.462;11.000;2024-02-14T10:32:22;7.88;;;3.90;;
37288;SDS011;23174;49.462;11.000;2024-02-14T10:34:25;4.95;;;3.40;;
37288;SDS011;23174;49.462;11.000;2024-02-14T10:36:27;6.85;;;3.90;;
37288;SDS011;23174;49.462;11.000;2024-02-14T10:38:27;6.95;;;3.30;;
37288;SDS011;23174;49.462;11.000;2024-02-14T10:40:35;3.63;;;2.75;;
37288;SDS011;23174;49.462;11.000;2024-02-14T10:42:38;3.03;;;2.40;;
37288;SDS011;23174;49.462;11.000;2024-02-14T10:44:38;5.30;;;3.00;;
37288;SDS011;23174;49.462;11.000;2024-02-14T10:46:39;3.63;;;2.45;;
37288;SDS011;23174;49.462;11.000;2024-02-14T10:48:40;5.35;;;2.90;;
37288;SDS011;23174;49.462;11.000;2024-02-14T10:50:41;4.32;;;2.53;;
37288;SDS011;23174;49.462;11.000;2024-02-14T10:52:44;6.95;;;2.92;;
37288;SDS011;23174;49.462;11.000;2024-02-14T10:54:52;6.80;;;2.15;;
37288;SDS011;23174;49.462;11.000;2024-02-14T10:56:58;2.80;;;1.90;;
37288;SDS011;23174;49.462;11.000;2024-02-14T10:59:13;7.05;;;2.03;;
37288;SDS011;23174;49.462;11.000;2024-02-14T11:01:18;3.17;;;2.40;;
37288;SDS011;23174;49.462;11.000;2024-02-14T11:03:20;3.17;;;2.22;;
37288;SDS011;23174;49.462;11.000;2024-02-14T11:05:21;5.43;;;2.30;;
37288;SDS011;23174;49.462;11.000;2024-02-14T11:07:28;4.90;;;2.22;;
37288;SDS011;23174;49.462;11.000;2024-02-14T11:09:47;3.70;;;2.00;;
37288;SDS011;23174;49.462;11.000;2024-02-14T11:11:47;2.28;;;1.80;;
37288;SDS011;23174;49.462;11.000;2024-02-14T11:13:51;2.28;;;2.08;;
37288;SDS011;23174;49.462;11.000;2024-02-14T11:15:55;1.98;;;1.40;;
37288;SDS011;23174;49.462;11.000;2024-02-14T11:18:03;12.20;;;1.80;;
37288;SDS011;23174;49.462;11.000;2024-02-14T11:20:21;1.95;;;1.40;;
37288;SDS011;23174;49.462;11.000;2024-02-14T11:22:33;3.25;;;2.10;;
37288;SDS011;23174;49.462;11.000;2024-02-14T11:24:36;3.45;;;1.50;;
37288;SDS011;23174;49.462;11.000;2024-02-14T11:26:55;3.15;;;1.88;;
37288;SDS011;23174;49.462;11.000;2024-02-14T11:28:59;4.82;;;2.00;;
37288;SDS011;23174;49.462;11.000;2024-02-14T11:31:01;1.92;;;1.63;;
37288;SDS011;23174;49.462;11.000;2024-02-14T11:33:10;2.08;;;1.45;;
37288;SDS011;23174;49.462;11.000;2024-02-14T11:35:18;2.53;;;1.60;;
37288;SDS011;23174;49.462;11.000;2024-02-14T11:37:19;3.28;;;1.40;;
37288;SDS011;23174;49.462;11.000;2024-02-14T11:39:23;4.53;;;1.42;;
37288;SDS011;23174;49.462;11.000;2024-02-14T11:41:26;4.63;;;1.38;;
37288;SDS011;23174;49.462;11.000;2024-02-14T11:43:27;2.55;;;1.42;;
37288;SDS011;23174;49.462;11.000;2024-02-14T11:45:27;1.75;;;1.58;;
37288;SDS011;23174;49.462;11.000;2024-02-14T11:47:28;3.30;;;1.98;;
37288;SDS011;23174;49.462;11.000;2024-02-14T11:49:29;3.42;;;1.88;;
37288;SDS011;23174;49.462;11.000;2024-02-14T11:51:30;3.00;;;1.90;;
37288;SDS011;23174;49.462;11.000;2024-02-14T11:53:33;3.42;;;2.88;;
37288;SDS011;23174;49.462;11.000;2024-02-14T11:55:33;2.40;;;1.70;;
37288;SDS011;23174;49.462;11.000;2024-02-14T11:57:35;1.80;;;1.60;;
37288;SDS011;23174;49.462;11.000;2024-02-14T11:59:36;5.68;;;1.77;;
37288;SDS011;23174;49.462;11.000;2024-02-14T12:01:37;2.95;;;1.15;;